Time;durP1;ratioP1;P1;durP2;ratioP2;P2;SDS_P1;SDS_P2;PMS_P1;PMS_P2;Temp;Humidity;BMP_temperature;BMP_pressure;BME280_temperature;BME280_humidity;BME280_pressure;Samples;Min_cycle;Max_cycle;Signal;HPM_P1;HPM_P2
2020/12/22 00:01:16;;;;;;;46.95;21.85;;;3.10;99.90;;;;;;5036238;28;20052;-76
2020/12/22 00:03:42;;;;;;;46.83;22.83;;;3.10;99.90;;;;;;5051542;28;20488;-76
2020/12/22 00:06:11;;;;;;;46.45;23.17;;;3.10;99.90;;;;;;5036110;28;20029;-76
2020/12/22 00:08:38;;;;;;;45.80;22.15;;;3.10;99.90;;;;;;5051540;28;20017;-76
2020/12/22 00:11:04;;;;;;;56.95;27.52;;;3.10;99.90;;;;;;5035969;28;20104;-76
2020/12/22 00:13:30;;;;;;;60.10;29.67;;;3.10;99.90;;;;;;5035827;28;20461;-76
2020/12/22 00:15:56;;;;;;;62.05;28.90;;;3.20;99.90;;;;;;5035698;28;20036;-76
2020/12/22 00:18:21;;;;;;;44.88;22.88;;;3.10;99.90;;;;;;5035768;28;20029;-76
2020/12/22 00:20:48;;;;;;;41.42;22.35;;;3.10;99.90;;;;;;5034404;28;20140;-76
2020/12/22 00:23:14;;;;;;;42.08;21.95;;;3.10;99.90;;;;;;5034436;28;20069;-76
2020/12/22 00:25:47;;;;;;;40.80;21.60;;;3.20;99.90;;;;;;5050978;28;20041;-76
2020/12/22 00:28:14;;;;;;;45.50;21.75;;;3.20;99.90;;;;;;5051061;28;20401;-76
2020/12/22 00:30:41;;;;;;;39.80;21.42;;;3.10;99.90;;;;;;5035554;28;20564;-76
2020/12/22 00:33:07;;;;;;;38.78;20.58;;;3.20;99.90;;;;;;5035493;28;20026;-76
2020/12/22 00:35:33;;;;;;;45.70;22.33;;;3.20;99.90;;;;;;5035326;28;20106;-76
2020/12/22 00:37:59;;;;;;;42.03;21.75;;;3.20;99.90;;;;;;5035477;28;20092;-76
2020/12/22 00:40:24;;;;;;;41.55;22.30;;;3.20;99.90;;;;;;5050719;28;20026;-76
2020/12/22 00:42:51;;;;;;;41.67;21.08;;;3.20;99.90;;;;;;5035447;28;20393;-76
2020/12/22 00:45:16;;;;;;;39.22;21.77;;;3.20;99.90;;;;;;5050694;28;20401;-76
2020/12/22 00:47:42;;;;;;;38.78;21.60;;;3.20;99.90;;;;;;5050636;28;20032;-76
2020/12/22 00:50:08;;;;;;;41.67;21.35;;;3.20;99.90;;;;;;5049557;28;20053;-76
2020/12/22 00:52:33;;;;;;;42.45;22.75;;;3.20;99.90;;;;;;5035216;28;20076;-76
2020/12/22 00:54:59;;;;;;;41.33;21.63;;;3.20;99.90;;;;;;5035106;28;20044;-76
2020/12/22 00:57:24;;;;;;;43.05;22.52;;;3.20;99.90;;;;;;5035081;28;20025;-76
2020/12/22 00:59:50;;;;;;;38.42;21.75;;;3.30;99.90;;;;;;5050383;28;20099;-76
2020/12/22 01:02:15;;;;;;;37.38;21.10;;;3.30;99.90;;;;;;5050255;28;20511;-76
2020/12/22 01:04:41;;;;;;;36.85;20.45;;;3.30;99.90;;;;;;5034924;28;20489;-76
2020/12/22 01:07:06;;;;;;;44.95;21.25;;;3.30;99.90;;;;;;5034777;28;20476;-76
2020/12/22 01:09:32;;;;;;;36.75;21.17;;;3.30;99.90;;;;;;5034730;28;20049;-76
2020/12/22 01:11:58;;;;;;;40.78;22.42;;;3.40;99.90;;;;;;5034846;28;20017;-76
2020/12/22 01:14:23;;;;;;;36.20;20.73;;;3.40;99.90;;;;;;5050047;28;20052;-76
2020/12/22 01:16:49;;;;;;;37.30;21.75;;;3.40;99.90;;;;;;5035068;28;20030;-76
2020/12/22 01:19:14;;;;;;;41.33;22.25;;;3.30;99.90;;;;;;5034682;28;20037;-76
2020/12/22 01:21:40;;;;;;;35.22;21.05;;;3.40;99.90;;;;;;5034648;28;20032;-76
2020/12/22 01:24:06;;;;;;;42.13;21.90;;;3.40;99.90;;;;;;5034403;28;20480;-76
2020/12/22 01:26:32;;;;;;;37.05;21.67;;;3.40;99.90;;;;;;5049781;28;20033;-76
2020/12/22 01:28:58;;;;;;;36.90;20.55;;;3.40;99.90;;;;;;5050089;28;20044;-76
2020/12/22 01:31:30;;;;;;;37.33;20.70;;;3.40;99.90;;;;;;5034404;28;20033;-76
2020/12/22 01:33:57;;;;;;;30.45;18.67;;;3.30;99.90;;;;;;5049789;28;20025;-76
2020/12/22 01:36:24;;;;;;;35.03;19.88;;;3.40;99.90;;;;;;5034701;28;20389;-76
2020/12/22 01:38:50;;;;;;;35.40;21.13;;;3.40;99.90;;;;;;5049594;28;20025;-76
2020/12/22 01:41:16;;;;;;;39.33;21.55;;;3.40;99.90;;;;;;5034241;28;20025;-76
2020/12/22 01:43:42;;;;;;;35.50;20.38;;;3.40;99.90;;;;;;5049404;28;20128;-76
2020/12/22 01:46:09;;;;;;;39.65;21.02;;;3.50;99.90;;;;;;5049393;28;20480;-76
2020/12/22 01:48:36;;;;;;;33.60;20.17;;;3.40;99.90;;;;;;5049508;28;20516;-76
2020/12/22 01:51:05;;;;;;;34.60;21.10;;;3.50;99.90;;;;;;5049597;28;20431;-76
2020/12/22 01:53:31;;;;;;;34.72;20.85;;;3.50;99.90;;;;;;5034022;28;20056;-76
2020/12/22 01:55:56;;;;;;;34.70;19.55;;;3.50;99.90;;;;;;5033986;28;20065;-76
2020/12/22 01:58:22;;;;;;;37.88;20.20;;;3.60;99.90;;;;;;5033873;28;20029;-76
2020/12/22 02:00:47;;;;;;;34.42;19.27;;;3.50;99.90;;;;;;5048965;28;20032;-76
2020/12/22 02:03:14;;;;;;;33.17;19.02;;;3.50;99.90;;;;;;5048995;28;20030;-76
2020/12/22 02:05:40;;;;;;;33.47;19.48;;;3.50;99.90;;;;;;5034050;28;20040;-76
2020/12/22 02:08:06;;;;;;;34.88;19.92;;;3.50;99.90;;;;;;5033817;28;20025;-76
2020/12/22 02:10:33;;;;;;;32.75;19.65;;;3.50;99.90;;;;;;5033664;28;20021;-76
2020/12/22 02:12:59;;;;;;;34.22;19.35;;;3.50;99.90;;;;;;5033620;28;20034;-76
2020/12/22 02:15:26;;;;;;;32.65;18.92;;;3.50;99.90;;;;;;5033419;28;20492;-76
2020/12/22 02:17:52;;;;;;;31.92;19.45;;;3.50;99.90;;;;;;5048869;28;20086;-76
2020/12/22 02:20:17;;;;;;;33.90;19.60;;;3.50;99.90;;;;;;5033556;28;20022;-76
2020/12/22 02:22:43;;;;;;;31.77;19.10;;;3.60;99.90;;;;;;5048701;28;20401;-76
2020/12/22 02:25:16;;;;;;;35.05;19.77;;;3.60;99.90;;;;;;5033268;28;20064;-76
2020/12/22 02:27:42;;;;;;;30.88;19.67;;;3.70;99.90;;;;;;5032032;28;20026;-76
2020/12/22 02:30:09;;;;;;;34.15;20.25;;;3.70;99.90;;;;;;5032002;28;20546;-76
2020/12/22 02:32:34;;;;;;;31.35;18.73;;;3.70;99.90;;;;;;5048588;28;20083;-76
2020/12/22 02:35:01;;;;;;;32.03;18.38;;;3.70;99.90;;;;;;5033223;28;20104;-76
2020/12/22 02:37:26;;;;;;;30.80;18.58;;;3.70;99.90;;;;;;5033259;28;20021;-76
2020/12/22 02:39:52;;;;;;;30.20;17.42;;;3.70;99.90;;;;;;5033553;28;20037;-76
2020/12/22 02:42:17;;;;;;;32.67;19.08;;;3.70;99.90;;;;;;5033080;28;20036;-76
2020/12/22 02:44:43;;;;;;;28.52;17.95;;;3.70;99.90;;;;;;5048489;28;20022;-76
2020/12/22 02:47:14;;;;;;;34.13;18.90;;;3.80;99.90;;;;;;5033303;28;20140;-76
2020/12/22 02:49:40;;;;;;;29.13;17.85;;;3.80;99.90;;;;;;5048382;28;20021;-76
2020/12/22 02:52:06;;;;;;;31.80;19.38;;;3.80;99.90;;;;;;5033069;28;20033;-76
2020/12/22 02:54:32;;;;;;;33.28;19.70;;;3.80;99.90;;;;;;5032904;28;20028;-76
2020/12/22 02:56:58;;;;;;;29.38;18.27;;;3.80;99.90;;;;;;5033212;28;20026;-76
2020/12/22 02:59:23;;;;;;;30.83;19.70;;;3.80;99.90;;;;;;5048265;28;20388;-76
2020/12/22 03:01:49;;;;;;;32.38;19.35;;;3.80;99.90;;;;;;5048248;28;20028;-76
2020/12/22 03:04:14;;;;;;;32.58;19.13;;;3.80;99.90;;;;;;5032950;28;20112;-76
2020/12/22 03:06:40;;;;;;;31.65;18.08;;;3.80;99.90;;;;;;5048066;28;20113;-76
2020/12/22 03:09:07;;;;;;;34.58;18.30;;;3.80;99.90;;;;;;5048138;28;20495;-76
2020/12/22 03:11:33;;;;;;;34.78;19.02;;;3.80;99.90;;;;;;5047932;28;20025;-76
2020/12/22 03:13:58;;;;;;;32.42;17.98;;;3.80;99.90;;;;;;5032548;28;20025;-76
2020/12/22 03:16:24;;;;;;;29.23;18.05;;;3.80;99.90;;;;;;5048588;28;20036;-76
2020/12/22 03:18:49;;;;;;;28.63;17.25;;;3.80;99.90;;;;;;5031826;28;20100;-76
2020/12/22 03:21:16;;;;;;;32.75;18.02;;;3.80;99.90;;;;;;5047962;28;20075;-76
2020/12/22 03:23:42;;;;;;;23.63;15.90;;;3.80;99.90;;;;;;5032594;28;20017;-76
2020/12/22 03:26:08;;;;;;;27.50;16.88;;;3.80;99.90;;;;;;5047884;28;20072;-76
2020/12/22 03:28:33;;;;;;;25.30;15.95;;;3.80;99.90;;;;;;5047972;28;20504;-76
2020/12/22 03:30:59;;;;;;;27.05;16.52;;;3.80;99.90;;;;;;5032550;28;20026;-76
2020/12/22 03:33:24;;;;;;;26.30;16.52;;;3.80;99.90;;;;;;5032568;28;20080;-76
2020/12/22 03:35:50;;;;;;;24.70;15.70;;;3.80;99.90;;;;;;5072567;22;20053;-76
2020/12/22 03:38:15;;;;;;;27.45;16.58;;;3.80;99.90;;;;;;5031665;28;20018;-78
2020/12/22 03:40:41;;;;;;;24.95;16.30;;;3.80;99.90;;;;;;5049166;28;20084;-78
2020/12/22 03:43:07;;;;;;;24.85;15.43;;;3.80;99.90;;;;;;5036114;28;20104;-78
2020/12/22 03:45:32;;;;;;;24.50;15.05;;;3.90;99.90;;;;;;5033531;28;20083;-78
2020/12/22 03:47:58;;;;;;;23.63;16.02;;;3.90;99.90;;;;;;5048852;28;20542;-76
2020/12/22 03:50:24;;;;;;;26.95;15.60;;;3.90;99.90;;;;;;5048656;28;20045;-78
2020/12/22 03:52:49;;;;;;;22.23;14.50;;;3.90;99.90;;;;;;5048466;28;20018;-77
2020/12/22 03:55:15;;;;;;;20.42;13.77;;;3.90;99.90;;;;;;5031627;28;20025;-77
2020/12/22 03:57:41;;;;;;;21.98;14.45;;;3.90;99.90;;;;;;5035012;28;20033;-77
2020/12/22 04:00:07;;;;;;;24.73;14.90;;;4.00;99.90;;;;;;5035294;28;20407;-77
2020/12/22 04:02:34;;;;;;;24.20;14.70;;;4.00;99.90;;;;;;5035954;28;20500;-77
2020/12/22 04:04:59;;;;;;;22.73;15.05;;;4.00;99.90;;;;;;5050477;28;20029;-77
2020/12/22 04:07:25;;;;;;;20.50;13.82;;;4.00;99.90;;;;;;5041137;28;20056;-77
2020/12/22 04:09:51;;;;;;;22.42;14.13;;;4.00;99.90;;;;;;5044316;28;20026;-77
2020/12/22 04:12:16;;;;;;;23.55;14.43;;;4.00;99.90;;;;;;5038623;28;20450;-77
2020/12/22 04:14:42;;;;;;;22.38;14.90;;;4.00;99.90;;;;;;5048004;28;20052;-77
2020/12/22 04:17:07;;;;;;;21.00;13.57;;;4.00;99.90;;;;;;5047621;28;20021;-77
2020/12/22 04:19:33;;;;;;;24.05;14.18;;;4.10;99.90;;;;;;5047459;28;20025;-77
2020/12/22 04:21:58;;;;;;;23.23;14.30;;;4.10;99.90;;;;;;5047379;28;20025;-77
2020/12/22 04:24:24;;;;;;;23.13;15.18;;;4.10;99.90;;;;;;5032808;28;20026;-77
2020/12/22 04:26:49;;;;;;;24.10;15.05;;;4.10;99.90;;;;;;5036142;28;20075;-77
2020/12/22 04:29:15;;;;;;;22.67;14.05;;;4.10;99.90;;;;;;5035646;28;20029;-77
2020/12/22 04:31:40;;;;;;;21.33;14.10;;;4.10;99.90;;;;;;5050856;28;20029;-77
2020/12/22 04:34:06;;;;;;;23.13;14.88;;;4.20;99.90;;;;;;5035660;28;20045;-77
2020/12/22 04:36:32;;;;;;;19.42;13.50;;;4.20;99.90;;;;;;5034457;28;20033;-77
2020/12/22 04:38:57;;;;;;;19.70;12.77;;;4.20;99.90;;;;;;5034285;28;20410;-77
2020/12/22 04:41:23;;;;;;;21.10;12.43;;;4.20;99.90;;;;;;5035571;28;20026;-77
2020/12/22 04:43:50;;;;;;;18.83;12.90;;;4.30;99.90;;;;;;5051044;28;20104;-77
2020/12/22 04:46:18;;;;;;;18.10;12.30;;;4.20;99.90;;;;;;5035552;28;20044;-77
2020/12/22 04:48:50;;;;;;;19.58;12.50;;;4.30;99.90;;;;;;5050889;28;20079;-77
2020/12/22 04:51:16;;;;;;;20.33;13.27;;;4.30;99.90;;;;;;5050824;28;20568;-77
2020/12/22 04:53:43;;;;;;;19.95;12.95;;;4.30;99.90;;;;;;5035339;28;20029;-77
2020/12/22 04:56:09;;;;;;;20.38;12.30;;;4.30;99.90;;;;;;5050485;28;20144;-77
2020/12/22 04:58:35;;;;;;;21.98;13.55;;;4.30;99.90;;;;;;5035261;28;20476;-77
2020/12/22 05:01:01;;;;;;;21.20;13.65;;;4.30;99.90;;;;;;5050410;28;20075;-77
2020/12/22 05:03:27;;;;;;;21.02;13.63;;;4.30;99.90;;;;;;5050533;28;20123;-77
2020/12/22 05:05:53;;;;;;;23.08;14.90;;;4.30;99.90;;;;;;5050305;28;20036;-77
2020/12/22 05:08:19;;;;;;;21.58;14.00;;;4.30;99.90;;;;;;5035143;28;20017;-77
2020/12/22 05:10:49;;;;;;;20.13;13.38;;;4.30;99.90;;;;;;5035036;28;20068;-77
2020/12/22 05:13:17;;;;;;;24.10;14.93;;;4.30;99.90;;;;;;5050300;28;20029;-77
2020/12/22 05:15:45;;;;;;;22.70;14.52;;;4.30;99.90;;;;;;5034939;28;20029;-77
2020/12/22 05:18:11;;;;;;;24.23;14.63;;;4.30;99.90;;;;;;5034931;28;20022;-77
2020/12/22 05:20:47;;;;;;;24.83;15.68;;;4.30;99.90;;;;;;5034784;28;20133;-77
2020/12/22 05:23:14;;;;;;;22.02;14.75;;;4.20;99.90;;;;;;5034776;28;20392;-77
2020/12/22 05:25:42;;;;;;;24.60;15.55;;;4.30;99.90;;;;;;5034560;28;20472;-77
2020/12/22 05:28:08;;;;;;;28.95;16.70;;;4.30;99.90;;;;;;5034603;28;20099;-77
2020/12/22 05:30:36;;;;;;;30.23;16.58;;;4.30;99.90;;;;;;5034898;28;20025;-77
2020/12/22 05:33:03;;;;;;;30.95;17.48;;;4.20;99.90;;;;;;5049780;28;20032;-77
2020/12/22 05:35:36;;;;;;;29.88;18.27;;;4.10;99.90;;;;;;5033813;28;20026;-76
2020/12/22 05:38:06;;;;;;;31.70;18.05;;;4.10;99.90;;;;;;5049803;28;20071;-77
2020/12/22 05:40:33;;;;;;;30.63;19.05;;;4.00;99.90;;;;;;5034540;28;20070;-77
2020/12/22 05:42:59;;;;;;;31.30;17.92;;;4.00;99.90;;;;;;5049452;28;20033;-77
2020/12/22 05:45:30;;;;;;;33.78;18.63;;;4.00;99.90;;;;;;5034059;28;20032;-77
2020/12/22 05:47:56;;;;;;;27.85;16.45;;;4.10;99.90;;;;;;5049603;28;20108;-76
2020/12/22 05:50:23;;;;;;;29.38;18.00;;;4.10;99.90;;;;;;5034728;28;20499;-76
2020/12/22 05:52:52;;;;;;;26.42;17.50;;;4.10;99.90;;;;;;5034215;28;20018;-77
2020/12/22 05:55:26;;;;;;;26.35;17.38;;;4.10;99.90;;;;;;5049395;28;20028;-77
2020/12/22 05:58:07;;;;;;;27.08;16.67;;;4.20;99.90;;;;;;5049271;28;20051;-77
2020/12/22 06:00:32;;;;;;;21.17;14.07;;;4.20;99.90;;;;;;5034078;28;20029;-76
2020/12/22 06:03:04;;;;;;;24.08;15.70;;;4.20;99.90;;;;;;5049701;28;20063;-77
2020/12/22 06:05:34;;;;;;;28.75;16.52;;;4.30;99.90;;;;;;5032712;28;20066;-77
2020/12/22 06:08:00;;;;;;;26.70;15.60;;;4.30;99.90;;;;;;5033762;28;20069;-77
2020/12/22 06:10:26;;;;;;;27.42;17.17;;;4.50;99.90;;;;;;5033980;28;20064;-77
2020/12/22 06:12:57;;;;;;;28.05;17.98;;;4.60;99.90;;;;;;5049176;28;20134;-76
2020/12/22 06:15:24;;;;;;;26.40;17.20;;;4.70;99.90;;;;;;5049247;28;20032;-76
2020/12/22 06:17:50;;;;;;;24.45;16.10;;;4.80;99.90;;;;;;5033907;28;20033;-77
2020/12/22 06:20:20;;;;;;;24.50;16.85;;;4.80;99.90;;;;;;5034196;28;20067;-76
2020/12/22 06:22:46;;;;;;;25.33;16.55;;;4.90;99.90;;;;;;5049042;28;20056;-77
2020/12/22 06:25:12;;;;;;;25.63;16.70;;;5.00;99.90;;;;;;5033582;28;20092;-77
2020/12/22 06:27:38;;;;;;;26.13;16.73;;;5.00;99.90;;;;;;5033584;28;20026;-77
2020/12/22 06:30:04;;;;;;;24.73;15.98;;;5.10;99.90;;;;;;5033606;28;20164;-77
2020/12/22 06:32:29;;;;;;;21.17;13.93;;;5.10;99.90;;;;;;5036791;28;20506;-77
2020/12/22 06:35:29;;;;;;;19.48;13.43;;;5.20;99.90;;;;;;5037303;28;20033;-76
2020/12/22 06:37:55;;;;;;;24.30;14.02;;;5.30;99.90;;;;;;5052963;28;20025;-77
2020/12/22 06:40:54;;;;;;;18.60;11.85;;;5.50;99.90;;;;;;5050265;28;20116;-77
2020/12/22 06:43:39;;;;;;;16.05;11.98;;;5.80;99.90;;;;;;5034556;28;20032;-77
2020/12/22 06:46:07;;;;;;;17.15;11.73;;;6.10;99.90;;;;;;5049322;28;20032;-77
2020/12/22 06:48:43;;;;;;;16.42;11.40;;;6.30;99.90;;;;;;5032913;28;20484;-77
2020/12/22 06:51:28;;;;;;;18.77;12.30;;;6.30;99.90;;;;;;5048814;28;20034;-77
2020/12/22 06:53:54;;;;;;;17.13;11.57;;;6.40;99.90;;;;;;5034094;28;20032;-77
2020/12/22 06:56:52;;;;;;;14.65;10.18;;;6.50;99.90;;;;;;5033293;28;20484;-77
2020/12/22 06:59:47;;;;;;;14.43;9.63;;;6.50;99.90;;;;;;5025338;28;20427;-77
2020/12/22 07:02:31;;;;;;;13.45;9.40;;;6.60;99.90;;;;;;5033367;28;20033;-77
2020/12/22 07:05:00;;;;;;;13.88;9.98;;;6.70;99.90;;;;;;5033071;28;20065;-77
2020/12/22 07:07:26;;;;;;;12.88;8.90;;;6.80;99.90;;;;;;5032870;28;20021;-77
2020/12/22 07:10:05;;;;;;;15.45;9.10;;;6.80;99.90;;;;;;5033082;28;20030;-77
2020/12/22 07:12:31;;;;;;;14.85;8.90;;;7.00;99.90;;;;;;5048286;28;20408;-77
2020/12/22 07:14:57;;;;;;;11.88;8.45;;;7.00;99.90;;;;;;5048144;28;20503;-77
2020/12/22 07:17:24;;;;;;;11.45;7.63;;;7.10;99.90;;;;;;5048298;28;20025;-77
2020/12/22 07:19:53;;;;;;;10.27;7.30;;;7.20;99.90;;;;;;5032850;28;20028;-77
2020/12/22 07:22:19;;;;;;;11.23;7.32;;;7.20;99.90;;;;;;5032813;28;20103;-77
2020/12/22 07:24:45;;;;;;;10.77;7.55;;;7.30;99.90;;;;;;5048391;28;20083;-77
2020/12/22 07:27:11;;;;;;;10.10;7.65;;;7.30;99.90;;;;;;5048504;28;20025;-77
2020/12/22 07:29:38;;;;;;;11.68;8.07;;;7.40;99.90;;;;;;5048301;28;20032;-77
2020/12/22 07:32:04;;;;;;;11.75;8.30;;;7.40;99.90;;;;;;5032828;28;20049;-77
2020/12/22 07:34:31;;;;;;;10.25;7.25;;;7.50;99.90;;;;;;5047956;28;20480;-77
2020/12/22 07:37:08;;;;;;;11.75;6.80;;;7.50;99.90;;;;;;5048166;28;20059;-77
2020/12/22 07:39:34;;;;;;;10.13;6.47;;;7.50;99.90;;;;;;5048107;28;20091;-76
2020/12/22 07:42:14;;;;;;;8.43;5.90;;;7.60;99.90;;;;;;5032626;28;20392;-77
2020/12/22 07:44:45;;;;;;;11.35;6.90;;;7.60;99.90;;;;;;5047821;28;20072;-77
2020/12/22 07:47:12;;;;;;;9.65;6.00;;;7.70;99.90;;;;;;5032434;28;20056;-77
2020/12/22 07:49:39;;;;;;;7.97;5.88;;;7.70;99.90;;;;;;5047799;28;20025;-77
2020/12/22 07:52:05;;;;;;;9.70;6.82;;;7.70;99.90;;;;;;5048356;28;20052;-77
2020/12/22 07:54:31;;;;;;;7.90;6.18;;;7.80;99.90;;;;;;5032781;28;20412;-77
2020/12/22 07:56:58;;;;;;;8.55;6.28;;;7.90;99.90;;;;;;5047958;28;20511;-77
2020/12/22 07:59:24;;;;;;;9.48;6.22;;;7.90;99.90;;;;;;5036357;28;20057;-76
2020/12/22 08:01:51;;;;;;;10.40;6.53;;;7.90;99.90;;;;;;5036477;28;20135;-77
2020/12/22 08:04:18;;;;;;;8.60;5.90;;;7.90;99.90;;;;;;5054349;28;20026;-76
2020/12/22 08:06:57;;;;;;;7.60;5.78;;;7.90;99.90;;;;;;5040182;28;20033;-77
2020/12/22 08:09:30;;;;;;;8.23;5.53;;;8.00;99.90;;;;;;5055006;28;20021;-76
2020/12/22 08:12:01;;;;;;;9.05;6.78;;;8.10;99.90;;;;;;5055466;28;20024;-76
2020/12/22 08:14:28;;;;;;;7.55;5.45;;;8.10;99.90;;;;;;5053570;28;20028;-76
2020/12/22 08:16:57;;;;;;;7.82;5.57;;;8.20;99.90;;;;;;5036512;28;20174;-76
2020/12/22 08:19:23;;;;;;;7.40;5.40;;;8.30;99.90;;;;;;5036227;28;20036;-77
2020/12/22 08:21:54;;;;;;;10.32;4.78;;;8.30;99.90;;;;;;5051428;28;20025;-76
2020/12/22 08:24:19;;;;;;;11.02;5.32;;;8.40;99.90;;;;;;5036194;28;20055;-77
2020/12/22 08:26:48;;;;;;;6.95;4.88;;;8.50;99.90;;;;;;5051184;28;20026;-76
2020/12/22 08:29:15;;;;;;;5.85;4.28;;;8.60;99.90;;;;;;5034918;28;20063;-76
2020/12/22 08:31:42;;;;;;;6.28;4.22;;;8.60;99.90;;;;;;5035702;28;20109;-76
2020/12/22 08:34:09;;;;;;;6.95;5.03;;;8.70;99.90;;;;;;5035585;28;20032;-77
2020/12/22 08:36:36;;;;;;;8.05;5.22;;;8.70;99.90;;;;;;5035689;28;20021;-76
2020/12/22 08:39:11;;;;;;;9.63;5.80;;;8.70;99.90;;;;;;5035701;28;20025;-76
2020/12/22 08:41:37;;;;;;;8.27;5.47;;;8.80;99.90;;;;;;5051104;28;20504;-76
2020/12/22 08:44:05;;;;;;;7.72;5.25;;;8.80;99.90;;;;;;5035522;28;20040;-76
2020/12/22 08:46:31;;;;;;;7.43;4.65;;;8.90;99.90;;;;;;5050854;28;20028;-76
2020/12/22 08:49:17;;;;;;;8.40;5.22;;;8.90;99.90;;;;;;5035509;28;20025;-76
2020/12/22 08:51:44;;;;;;;7.65;5.55;;;9.00;99.90;;;;;;5034167;28;20507;-76
2020/12/22 08:54:10;;;;;;;8.77;4.80;;;9.10;99.90;;;;;;5050638;28;20071;-76
2020/12/22 08:56:37;;;;;;;6.97;4.68;;;9.20;99.90;;;;;;5035552;28;20068;-76
2020/12/22 08:59:12;;;;;;;6.43;4.18;;;9.20;99.90;;;;;;5050515;28;20492;-76
2020/12/22 09:01:43;;;;;;;5.85;4.40;;;9.30;99.90;;;;;;5033985;28;20116;-76
2020/12/22 09:04:10;;;;;;;5.50;3.42;;;9.30;99.90;;;;;;5035508;28;20075;-77
2020/12/22 09:06:43;;;;;;;5.90;3.92;;;9.40;99.90;;;;;;5035057;28;20052;-77
2020/12/22 09:09:17;;;;;;;5.00;3.50;;;9.50;99.90;;;;;;5035090;28;20025;-76
2020/12/22 09:11:45;;;;;;;5.20;3.60;;;9.60;99.90;;;;;;5033030;28;20492;-77
2020/12/22 09:14:18;;;;;;;7.47;4.25;;;9.70;99.90;;;;;;5050323;28;20026;-76
2020/12/22 09:16:47;;;;;;;5.68;4.30;;;9.90;99.90;;;;;;5034977;28;20021;-77
2020/12/22 09:19:14;;;;;;;6.68;4.93;;;9.90;99.90;;;;;;5035274;28;20026;-77
2020/12/22 09:21:39;;;;;;;7.75;5.53;;;10.10;99.90;;;;;;5050357;28;20057;-76
2020/12/22 09:24:06;;;;;;;10.30;8.63;;;10.10;99.90;;;;;;5034633;28;20065;-76
2020/12/22 09:26:31;;;;;;;27.27;20.70;;;10.00;99.90;;;;;;5035015;28;20025;-76
2020/12/22 09:28:57;;;;;;;59.40;40.88;;;10.00;99.90;;;;;;5034676;28;20101;-77
2020/12/22 09:31:24;;;;;;;60.75;39.67;;;10.00;99.90;;;;;;5035076;28;20026;-77
2020/12/22 09:33:49;;;;;;;27.55;19.13;;;9.90;99.90;;;;;;5050001;28;20456;-77
2020/12/22 09:36:15;;;;;;;31.30;24.83;;;9.90;99.90;;;;;;5059818;22;20077;-75
2020/12/22 09:38:41;;;;;;;18.65;14.88;;;9.90;99.90;;;;;;5049938;28;20496;-75
2020/12/22 09:41:07;;;;;;;12.68;11.38;;;9.90;99.90;;;;;;5034804;28;20021;-75
2020/12/22 09:43:32;;;;;;;14.00;10.02;;;10.00;99.90;;;;;;5033329;28;20032;-75
2020/12/22 09:45:58;;;;;;;9.40;8.43;;;10.10;99.90;;;;;;5049625;28;20546;-75
2020/12/22 09:48:23;;;;;;;15.70;12.68;;;10.20;99.90;;;;;;5049701;28;20024;-75
2020/12/22 09:50:49;;;;;;;13.07;8.85;;;10.30;99.90;;;;;;5034523;28;20101;-75
2020/12/22 09:53:14;;;;;;;21.20;15.55;;;10.40;99.90;;;;;;5034319;28;20061;-75
2020/12/22 09:55:40;;;;;;;13.18;11.65;;;10.40;99.90;;;;;;5034093;28;20029;-75
2020/12/22 09:58:05;;;;;;;5.32;4.70;;;10.30;99.90;;;;;;5049424;28;20515;-75
2020/12/22 10:00:31;;;;;;;6.00;4.15;;;10.30;99.90;;;;;;5034288;28;20109;-75
2020/12/22 10:02:56;;;;;;;7.55;3.70;;;10.30;99.90;;;;;;5034290;28;20427;-75
2020/12/22 10:05:22;;;;;;;7.13;4.15;;;10.20;99.90;;;;;;5034017;28;20400;-76
2020/12/22 10:07:47;;;;;;;7.53;3.97;;;10.20;99.90;;;;;;5033893;28;20048;-75
2020/12/22 10:10:13;;;;;;;6.57;3.72;;;10.20;99.90;;;;;;5049353;28;20028;-75
2020/12/22 10:12:38;;;;;;;6.10;3.30;;;10.20;99.90;;;;;;5034048;28;20018;-76
2020/12/22 10:15:04;;;;;;;5.28;3.17;;;10.20;99.90;;;;;;5033843;28;20392;-75
2020/12/22 10:17:31;;;;;;;6.68;3.70;;;10.20;99.90;;;;;;5049102;28;20113;-76
2020/12/22 10:19:56;;;;;;;5.63;3.28;;;10.30;99.90;;;;;;5033845;28;20022;-75
2020/12/22 10:22:22;;;;;;;3.60;2.88;;;10.40;99.90;;;;;;5033644;28;20052;-75
2020/12/22 10:24:48;;;;;;;3.63;2.42;;;10.50;99.90;;;;;;5049162;28;20074;-76
2020/12/22 10:27:13;;;;;;;5.68;3.38;;;10.50;99.90;;;;;;5049024;28;20155;-75
2020/12/22 10:29:39;;;;;;;5.82;3.65;;;10.60;99.90;;;;;;5033825;28;20100;-75
2020/12/22 10:32:04;;;;;;;5.95;3.95;;;10.70;99.90;;;;;;5032518;28;20023;-76
2020/12/22 10:34:30;;;;;;;5.13;2.78;;;10.80;99.90;;;;;;5048651;28;20115;-76
2020/12/22 10:36:56;;;;;;;4.40;2.63;;;10.80;99.90;;;;;;5032489;28;20439;-75
2020/12/22 10:39:22;;;;;;;4.00;2.45;;;10.80;99.90;;;;;;5033524;28;20071;-75
2020/12/22 10:41:48;;;;;;;4.30;2.63;;;10.80;99.90;;;;;;5033434;28;20041;-75
2020/12/22 10:44:13;;;;;;;4.65;2.80;;;10.80;99.90;;;;;;5048466;28;20116;-75
2020/12/22 10:46:39;;;;;;;4.28;2.83;;;10.80;99.90;;;;;;5031948;28;20484;-75
2020/12/22 10:49:05;;;;;;;6.18;3.60;;;10.80;99.90;;;;;;5033159;28;20029;-75
2020/12/22 10:51:31;;;;;;;5.57;3.63;;;10.90;99.90;;;;;;5033284;28;20442;-76
2020/12/22 10:53:57;;;;;;;6.75;3.85;;;10.90;99.90;;;;;;5032992;28;20024;-75
2020/12/22 10:56:23;;;;;;;11.20;7.15;;;10.90;99.90;;;;;;5033246;28;20108;-75
2020/12/22 10:58:48;;;;;;;16.17;8.60;;;10.90;99.90;;;;;;5048286;28;20118;-75
2020/12/22 11:01:15;;;;;;;11.30;6.90;;;10.90;99.90;;;;;;5033010;28;20029;-75
2020/12/22 11:03:42;;;;;;;12.10;8.07;;;10.90;99.90;;;;;;5033172;28;20443;-75
2020/12/22 11:06:35;;;;;;;17.60;12.13;;;10.90;99.90;;;;;;5048178;28;20025;-75
2020/12/22 11:09:01;;;;;;;7.50;5.53;;;10.90;99.90;;;;;;5049144;28;20029;-76
2020/12/22 11:11:26;;;;;;;6.20;4.55;;;10.90;99.90;;;;;;5048545;28;20025;-76
2020/12/22 11:13:52;;;;;;;5.90;3.35;;;10.90;99.90;;;;;;5048079;28;20069;-76
2020/12/22 11:16:24;;;;;;;3.83;2.10;;;11.00;99.90;;;;;;5032721;28;20045;-76
2020/12/22 11:18:50;;;;;;;2.92;1.63;;;11.10;99.90;;;;;;5033073;28;20116;-76
2020/12/22 11:21:15;;;;;;;1.25;1.10;;;11.20;99.90;;;;;;5032973;28;20115;-75
2020/12/22 11:23:41;;;;;;;2.65;1.20;;;11.40;99.90;;;;;;5032868;28;20076;-75
2020/12/22 11:26:10;;;;;;;1.15;0.90;;;11.50;99.90;;;;;;5032551;28;20026;-76
2020/12/22 11:28:38;;;;;;;1.40;1.00;;;11.70;99.90;;;;;;5048162;28;20472;-76
2020/12/22 11:31:04;;;;;;;0.93;0.77;;;11.80;99.90;;;;;;5048324;28;20072;-76
2020/12/22 11:33:30;;;;;;;1.42;0.93;;;11.90;99.90;;;;;;5048817;28;20029;-76
2020/12/22 11:35:55;;;;;;;1.00;0.80;;;11.80;99.90;;;;;;5036610;28;20032;-77
2020/12/22 11:38:21;;;;;;;1.20;1.05;;;11.80;99.90;;;;;;5037250;28;20049;-77
2020/12/22 11:40:46;;;;;;;0.70;0.60;;;11.80;99.90;;;;;;5052537;28;20024;-77
2020/12/22 11:43:12;;;;;;;1.75;1.15;;;11.80;99.90;;;;;;5037303;28;20076;-77
2020/12/22 11:45:38;;;;;;;3.10;2.30;;;11.90;99.90;;;;;;5052408;28;20080;-76
2020/12/22 11:48:03;;;;;;;8.98;5.75;;;11.90;99.90;;;;;;5035691;28;20036;-77
2020/12/22 11:50:29;;;;;;;10.85;6.10;;;12.00;99.90;;;;;;5052419;28;20095;-77
2020/12/22 11:52:54;;;;;;;1.67;1.38;;;12.00;99.90;;;;;;5036935;28;20099;-77
2020/12/22 11:55:20;;;;;;;5.95;1.23;;;12.00;99.90;;;;;;5036743;28;20031;-77
2020/12/22 11:57:46;;;;;;;2.28;0.90;;;12.20;99.90;;;;;;5036846;28;20037;-77
2020/12/22 12:00:12;;;;;;;2.08;1.00;;;12.40;99.90;;;;;;5039302;28;20528;-77
2020/12/22 12:02:37;;;;;;;1.58;1.02;;;12.50;99.90;;;;;;5038910;28;20035;-76
2020/12/22 12:05:03;;;;;;;1.63;1.00;;;12.50;99.90;;;;;;5038682;28;20083;-76
2020/12/22 12:07:28;;;;;;;1.77;0.88;;;12.50;99.90;;;;;;5039251;28;20391;-76
2020/12/22 12:09:54;;;;;;;2.05;1.00;;;12.50;99.90;;;;;;5037041;28;20034;-77
2020/12/22 12:12:19;;;;;;;3.03;0.90;;;12.40;99.90;;;;;;5052127;28;20037;-76
2020/12/22 12:14:45;;;;;;;3.35;0.93;;;12.40;99.90;;;;;;5036050;28;20018;-76
2020/12/22 12:17:10;;;;;;;1.30;0.88;;;12.40;99.90;;;;;;5034728;28;20036;-76
2020/12/22 12:19:36;;;;;;;2.17;1.30;;;12.30;99.90;;;;;;5036296;28;20032;-77
2020/12/22 12:22:02;;;;;;;1.83;1.38;;;12.20;99.90;;;;;;5036164;28;20030;-76
2020/12/22 12:24:27;;;;;;;2.13;1.63;;;12.20;99.90;;;;;;5035901;28;20029;-77
2020/12/22 12:26:53;;;;;;;1.70;0.80;;;12.20;99.90;;;;;;5035379;28;20132;-77
2020/12/22 12:29:20;;;;;;;1.85;0.73;;;12.20;99.90;;;;;;5052497;28;20432;-77
2020/12/22 12:31:47;;;;;;;0.80;0.80;;;12.20;99.90;;;;;;5051603;28;20021;-77
2020/12/22 12:34:13;;;;;;;1.17;0.85;;;12.20;99.90;;;;;;5036005;28;20028;-77
2020/12/22 12:36:38;;;;;;;0.70;0.70;;;12.20;99.90;;;;;;5036039;28;20033;-76
2020/12/22 12:39:04;;;;;;;1.00;0.90;;;12.10;99.90;;;;;;5038845;28;20036;-77
2020/12/22 12:41:30;;;;;;;1.33;1.00;;;12.20;99.90;;;;;;5036932;28;20492;-77